createdAt,value
2017-06-11T00:00:31.144Z,0
2017-06-11T00:01:31.152Z,0
2017-06-11T00:02:26.230Z,0
2017-06-11T00:03:20.271Z,0
2017-06-11T00:04:08.699Z,0
2017-06-11T00:04:56.369Z,0
2017-06-11T00:05:44.324Z,0
2017-06-11T00:06:33.824Z,0
2017-06-11T00:07:21.631Z,0
2017-06-11T00:08:11.065Z,0
2017-06-11T00:09:05.821Z,0
2017-06-11T00:09:53.585Z,0
2017-06-11T00:10:47.736Z,0
2017-06-11T00:11:42.635Z,0
2017-06-11T00:12:36.762Z,0
2017-06-11T00:13:25.769Z,0
2017-06-11T00:14:13.826Z,0
2017-06-11T00:15:01.859Z,0
2017-06-11T00:15:50.930Z,0
2017-06-11T00:16:44.951Z,0
2017-06-11T00:17:51.263Z,0
2017-06-11T00:18:45.007Z,0
2017-06-11T00:19:45.006Z,0
2017-06-11T00:20:33.187Z,0
2017-06-11T00:21:34.122Z,0
2017-06-11T00:22:34.089Z,0
2017-06-11T00:23:34.179Z,0
2017-06-11T00:24:22.258Z,0
2017-06-11T00:25:16.264Z,0
2017-06-11T00:26:05.325Z,0
2017-06-11T00:26:53.419Z,0
2017-06-11T00:27:47.408Z,0
2017-06-11T00:28:35.420Z,0
2017-06-11T00:29:23.472Z,0
2017-06-11T00:30:11.541Z,0
2017-06-11T00:31:06.800Z,0
2017-06-11T00:32:00.609Z,0
2017-06-11T00:32:49.650Z,0
2017-06-11T00:33:37.669Z,0
2017-06-11T00:34:26.800Z,0
2017-06-11T00:35:14.848Z,0
2017-06-11T00:36:02.843Z,0
2017-06-11T00:36:50.844Z,0
2017-06-11T00:37:39.886Z,0
2017-06-11T00:38:27.941Z,0
2017-06-11T00:39:17.046Z,0
2017-06-11T00:40:05.065Z,0
2017-06-11T00:40:53.138Z,0
2017-06-11T00:41:42.122Z,0
2017-06-11T00:42:30.139Z,0
2017-06-11T00:43:18.471Z,0
2017-06-11T00:44:07.610Z,0
2017-06-11T00:44:56.505Z,0
2017-06-11T00:45:45.843Z,0
2017-06-11T00:46:33.473Z,0
2017-06-11T00:47:22.610Z,0
2017-06-11T00:48:10.750Z,0
2017-06-11T00:48:58.817Z,0
2017-06-11T00:49:46.561Z,0
2017-06-11T00:50:35.985Z,0
2017-06-11T00:51:23.905Z,0
2017-06-11T00:52:18.144Z,0
2017-06-11T00:53:05.776Z,0
2017-06-11T00:54:07.143Z,0
2017-06-11T00:55:01.229Z,0
2017-06-11T00:56:01.196Z,0
2017-06-11T00:56:56.312Z,0
2017-06-11T00:57:51.426Z,0
2017-06-11T00:58:39.249Z,0
2017-06-11T00:59:28.130Z,0
2017-06-11T01:00:16.046Z,0
2017-06-11T01:01:04.105Z,0
2017-06-11T01:01:52.149Z,0
2017-06-11T01:02:40.204Z,0
2017-06-11T01:03:29.430Z,0
2017-06-11T01:04:18.250Z,0
2017-06-11T01:05:06.349Z,0
2017-06-11T01:06:06.792Z,0
2017-06-11T01:07:06.692Z,0
2017-06-11T01:08:06.722Z,0
2017-06-11T01:09:07.447Z,0
2017-06-11T01:10:08.499Z,0
2017-06-11T01:11:08.526Z,0
2017-06-11T01:12:14.587Z,0
2017-06-11T01:13:09.627Z,0
2017-06-11T01:14:09.599Z,0
2017-06-11T01:15:04.667Z,0
2017-06-11T01:15:59.744Z,0
2017-06-11T01:17:01.253Z,0
2017-06-11T01:18:01.309Z,0
2017-06-11T01:19:00.838Z,0
2017-06-11T01:20:00.825Z,0
2017-06-11T01:21:01.882Z,0
2017-06-11T01:22:03.447Z,0
2017-06-11T01:22:56.987Z,0
2017-06-11T01:23:56.969Z,0
2017-06-11T01:24:52.323Z,0
2017-06-11T01:25:47.055Z,0
2017-06-11T01:26:47.719Z,0
2017-06-11T01:27:42.118Z,0
2017-06-11T01:28:37.609Z,0
2017-06-11T01:29:37.663Z,0
2017-06-11T01:30:32.725Z,0
2017-06-11T01:31:27.873Z,0
2017-06-11T01:32:28.537Z,0
2017-06-11T01:33:28.524Z,0
2017-06-11T01:34:28.576Z,0
2017-06-11T01:35:23.631Z,0
2017-06-11T01:36:17.411Z,0
2017-06-11T01:37:18.028Z,0
2017-06-11T01:38:13.332Z,0
2017-06-11T01:39:12.606Z,0
2017-06-11T01:40:12.544Z,0
2017-06-11T01:41:18.649Z,0
2017-06-11T01:42:14.148Z,0
2017-06-11T01:43:13.939Z,0
2017-06-11T01:44:09.222Z,0
2017-06-11T01:45:04.251Z,0
2017-06-11T01:46:04.338Z,0
2017-06-11T01:46:59.359Z,0
2017-06-11T01:47:54.016Z,0
2017-06-11T01:48:54.093Z,0
2017-06-11T01:49:48.925Z,0
2017-06-11T01:50:43.958Z,0
2017-06-11T01:51:45.525Z,0
2017-06-11T01:52:51.025Z,0
2017-06-11T01:53:51.097Z,0
2017-06-11T01:54:46.514Z,0
2017-06-11T01:55:41.158Z,0
2017-06-11T01:56:42.682Z,0
2017-06-11T01:57:42.227Z,0
2017-06-11T01:58:42.255Z,0
2017-06-11T01:59:42.348Z,0
2017-06-11T02:00:43.350Z,0
2017-06-11T02:01:44.797Z,0
2017-06-11T02:02:38.407Z,0
2017-06-11T02:03:38.431Z,0
2017-06-11T02:04:33.460Z,0
2017-06-11T02:05:28.954Z,0
2017-06-11T02:06:28.778Z,0
2017-06-11T02:07:24.255Z,0
2017-06-11T02:08:18.998Z,0
2017-06-11T02:09:19.141Z,0
2017-06-11T02:10:13.682Z,0
2017-06-11T02:11:09.123Z,0
2017-06-11T02:12:10.283Z,0
2017-06-11T02:13:09.803Z,0
2017-06-11T02:14:09.823Z,0
2017-06-11T02:15:04.879Z,0
2017-06-11T02:16:05.269Z,0
2017-06-11T02:17:05.405Z,4
2017-06-11T02:18:04.952Z,4
2017-06-11T02:19:05.025Z,4
2017-06-11T02:19:59.002Z,0
2017-06-11T02:20:59.040Z,0
2017-06-11T02:21:59.111Z,4
2017-06-11T02:22:54.158Z,4
2017-06-11T02:23:48.325Z,4
2017-06-11T02:24:48.246Z,4
2017-06-11T02:25:43.595Z,4
2017-06-11T02:26:43.706Z,8
2017-06-11T02:27:37.628Z,4
2017-06-11T02:28:37.374Z,8
2017-06-11T02:29:32.497Z,8
2017-06-11T02:30:27.415Z,8
2017-06-11T02:31:27.553Z,12
2017-06-11T02:32:22.598Z,12
2017-06-11T02:33:17.531Z,16
2017-06-11T02:34:18.569Z,12
2017-06-11T02:35:18.762Z,16
2017-06-11T02:36:13.678Z,16
2017-06-11T02:37:13.659Z,20
2017-06-11T02:38:07.740Z,24
2017-06-11T02:39:07.745Z,24
2017-06-11T02:40:02.873Z,28
2017-06-11T02:40:57.948Z,32
2017-06-11T02:41:57.880Z,36
2017-06-11T02:42:52.908Z,40
2017-06-11T02:43:47.964Z,44
2017-06-11T02:44:49.032Z,48
2017-06-11T02:45:49.022Z,56
2017-06-11T02:46:49.066Z,64
2017-06-11T02:47:49.197Z,72
2017-06-11T02:48:50.096Z,80
2017-06-11T02:49:51.145Z,88
2017-06-11T02:50:45.197Z,96
2017-06-11T02:51:45.205Z,108
2017-06-11T02:52:40.264Z,120
2017-06-11T02:53:35.343Z,132
2017-06-11T02:54:29.338Z,144
2017-06-11T02:55:23.392Z,160
2017-06-11T02:56:11.423Z,168
2017-06-11T02:56:59.459Z,184
2017-06-11T02:57:48.753Z,196
2017-06-11T02:58:36.537Z,212
2017-06-11T02:59:24.639Z,228
2017-06-11T03:00:24.665Z,248
2017-06-11T03:01:12.738Z,264
2017-06-11T03:02:00.721Z,284
2017-06-11T03:02:49.800Z,304
2017-06-11T03:03:37.819Z,320
2017-06-11T03:04:25.874Z,340
2017-06-11T03:05:14.925Z,364
2017-06-11T03:06:02.958Z,384
2017-06-11T03:06:51.013Z,412
2017-06-11T03:07:40.027Z,436
2017-06-11T03:08:28.132Z,460
2017-06-11T03:09:16.172Z,488
2017-06-11T03:10:05.212Z,512
2017-06-11T03:10:53.245Z,536
2017-06-11T03:11:42.850Z,564
2017-06-11T03:12:30.365Z,592
2017-06-11T03:13:18.365Z,620
2017-06-11T03:14:07.448Z,652
2017-06-11T03:14:55.454Z,684
2017-06-11T03:15:43.604Z,716
2017-06-11T03:16:32.554Z,748
2017-06-11T03:17:20.608Z,784
2017-06-11T03:18:08.632Z,816
2017-06-11T03:18:57.677Z,852
2017-06-11T03:19:45.739Z,884
2017-06-11T03:20:34.759Z,920
2017-06-11T03:21:22.920Z,960
2017-06-11T03:22:11.126Z,996
2017-06-11T03:22:59.892Z,1032
2017-06-11T03:23:47.917Z,1068
2017-06-11T03:24:35.987Z,1112
2017-06-11T03:25:25.040Z,1152
2017-06-11T03:26:13.171Z,1196
2017-06-11T03:27:02.154Z,1240
2017-06-11T03:27:50.166Z,1280
2017-06-11T03:28:38.248Z,1324
2017-06-11T03:29:27.431Z,1372
2017-06-11T03:30:15.331Z,1428
2017-06-11T03:31:03.417Z,1492
2017-06-11T03:31:51.424Z,1556
2017-06-11T03:32:39.479Z,1636
2017-06-11T03:33:27.497Z,1720
2017-06-11T03:34:15.560Z,1816
2017-06-11T03:35:03.574Z,1916
2017-06-11T03:35:52.760Z,2020
2017-06-11T03:36:41.225Z,2128
2017-06-11T03:37:28.746Z,2228
2017-06-11T03:38:16.759Z,2324
2017-06-11T03:39:11.072Z,2424
2017-06-11T03:39:58.880Z,2508
2017-06-11T03:40:46.908Z,2584
2017-06-11T03:41:35.196Z,2648
2017-06-11T03:42:22.941Z,2712
2017-06-11T03:43:12.222Z,2760
2017-06-11T03:44:00.074Z,2808
2017-06-11T03:44:48.128Z,2852
2017-06-11T03:45:37.170Z,2892
2017-06-11T03:46:25.231Z,2924
2017-06-11T03:47:13.213Z,2964
2017-06-11T03:48:02.700Z,3004
2017-06-11T03:48:50.307Z,3072
2017-06-11T03:49:38.357Z,3160
2017-06-11T03:50:27.417Z,3256
2017-06-11T03:51:15.477Z,3380
2017-06-11T03:52:05.044Z,3504
2017-06-11T03:52:52.563Z,3596
2017-06-11T03:53:40.778Z,3648
2017-06-11T03:54:29.666Z,3664
2017-06-11T03:55:18.744Z,3656
2017-06-11T03:56:12.743Z,3652
2017-06-11T03:57:02.213Z,3628
2017-06-11T03:57:50.223Z,3584
2017-06-11T03:58:39.279Z,3544
2017-06-11T03:59:27.007Z,3504
2017-06-11T04:00:14.949Z,3432
2017-06-11T04:01:04.508Z,3344
2017-06-11T04:01:52.188Z,3260
2017-06-11T04:02:40.086Z,3172
2017-06-11T04:03:29.232Z,3104
2017-06-11T04:04:17.413Z,3056
2017-06-11T04:05:06.571Z,3028
2017-06-11T04:05:54.670Z,3036
2017-06-11T04:06:43.096Z,3068
2017-06-11T04:07:30.588Z,3136
2017-06-11T04:08:19.789Z,3236
2017-06-11T04:09:07.607Z,3368
2017-06-11T04:09:57.046Z,3556
2017-06-11T04:10:45.052Z,3788
2017-06-11T04:11:33.072Z,4056
2017-06-11T04:12:22.137Z,4336
2017-06-11T04:13:09.714Z,4552
2017-06-11T04:13:59.213Z,4736
2017-06-11T04:14:47.208Z,4940
2017-06-11T04:15:35.263Z,5228
2017-06-11T04:16:24.347Z,5556
2017-06-11T04:17:12.195Z,5848
2017-06-11T04:18:00.435Z,6136
2017-06-11T04:18:49.455Z,6412
2017-06-11T04:19:37.534Z,6612
2017-06-11T04:20:26.568Z,6736
2017-06-11T04:21:14.587Z,6864
2017-06-11T04:22:02.799Z,7064
2017-06-11T04:22:50.809Z,7320
2017-06-11T04:23:39.771Z,7468
2017-06-11T04:24:27.866Z,7700
2017-06-11T04:25:16.898Z,8040
2017-06-11T04:26:04.884Z,8560
2017-06-11T04:26:52.903Z,9092
2017-06-11T04:27:41.832Z,9480
2017-06-11T04:28:29.844Z,10352
2017-06-11T04:29:17.859Z,12696
2017-06-11T04:30:07.006Z,14848
2017-06-11T04:30:55.111Z,15552
2017-06-11T04:31:49.101Z,14400
2017-06-11T04:32:37.310Z,15488
2017-06-11T04:33:25.398Z,17440
2017-06-11T04:34:14.454Z,18656
2017-06-11T04:35:08.476Z,13572
2017-06-11T04:36:02.511Z,9108
2017-06-11T04:36:50.524Z,9404
2017-06-11T04:37:50.547Z,12060
2017-06-11T04:38:38.772Z,13920
2017-06-11T04:39:26.705Z,11596
2017-06-11T04:40:14.748Z,11392
2017-06-11T04:41:08.749Z,16896
2017-06-11T04:41:56.665Z,19456
2017-06-11T04:42:45.357Z,9432
2017-06-11T04:43:34.799Z,15392
2017-06-11T04:44:28.698Z,11492
2017-06-11T04:45:28.477Z,11432
2017-06-11T04:46:16.899Z,11348
2017-06-11T04:47:05.854Z,10568
2017-06-11T04:48:06.191Z,9072
2017-06-11T04:48:54.233Z,9004
2017-06-11T04:49:48.572Z,8928
2017-06-11T04:50:37.243Z,8856
2017-06-11T04:51:25.329Z,8792
2017-06-11T04:52:19.015Z,8820
2017-06-11T04:53:07.290Z,8976
2017-06-11T04:54:01.031Z,9168
2017-06-11T04:54:55.130Z,9368
2017-06-11T04:55:43.526Z,9568
2017-06-11T04:56:37.529Z,9812
2017-06-11T04:57:26.572Z,10128
2017-06-11T04:58:15.622Z,10508
2017-06-11T04:59:03.654Z,10916
2017-06-11T04:59:51.792Z,11412
2017-06-11T05:00:39.855Z,12124
2017-06-11T05:01:33.653Z,13052
2017-06-11T05:02:22.597Z,13960
2017-06-11T05:03:10.841Z,14792
2017-06-11T05:03:59.844Z,15608
2017-06-11T05:04:47.888Z,16800
2017-06-11T05:05:36.688Z,16672
2017-06-11T05:06:25.132Z,16224
2017-06-11T05:07:12.777Z,16384
2017-06-11T05:08:07.275Z,34624
2017-06-11T05:09:01.278Z,26688
2017-06-11T05:10:01.168Z,34400
2017-06-11T05:10:54.947Z,26240
2017-06-11T05:11:43.735Z,28992
2017-06-11T05:12:32.156Z,20704
2017-06-11T05:13:20.090Z,32736
2017-06-11T05:14:21.599Z,16768
2017-06-11T05:15:15.597Z,18592
2017-06-11T05:16:04.739Z,21664
2017-06-11T05:16:58.783Z,15776
2017-06-11T05:17:53.841Z,15244
2017-06-11T05:18:53.889Z,16000
2017-06-11T05:19:48.965Z,16480
2017-06-11T05:20:42.952Z,17056
2017-06-11T05:21:38.051Z,17184
2017-06-11T05:22:38.074Z,17152
2017-06-11T05:23:39.142Z,16992
2017-06-11T05:24:39.154Z,16736
2017-06-11T05:25:34.190Z,16448
2017-06-11T05:26:34.237Z,16384
2017-06-11T05:27:29.287Z,17472
2017-06-11T05:28:24.450Z,22784
2017-06-11T05:29:13.402Z,17632
2017-06-11T05:30:07.453Z,16960
2017-06-11T05:31:01.557Z,16864
2017-06-11T05:31:50.517Z,17344
2017-06-11T05:32:39.618Z,17760
2017-06-11T05:33:39.644Z,18400
2017-06-11T05:34:28.685Z,19040
2017-06-11T05:35:16.733Z,19104
2017-06-11T05:36:05.825Z,19040
2017-06-11T05:36:53.833Z,18976
2017-06-11T05:37:41.934Z,19296
2017-06-11T05:38:29.949Z,19680
2017-06-11T05:39:24.022Z,19360
2017-06-11T05:40:12.043Z,19040
2017-06-11T05:41:01.109Z,18560
2017-06-11T05:41:49.221Z,17568
2017-06-11T05:42:38.184Z,16672
2017-06-11T05:43:26.320Z,16384
2017-06-11T05:44:14.331Z,16480
2017-06-11T05:45:08.436Z,16128
2017-06-11T05:46:02.416Z,16160
2017-06-11T05:46:57.464Z,16000
2017-06-11T05:47:52.507Z,15064
2017-06-11T05:48:47.585Z,14636
2017-06-11T05:49:35.591Z,14420
2017-06-11T05:50:35.713Z,14132
2017-06-11T05:51:29.691Z,13608
2017-06-11T05:52:29.778Z,12920
2017-06-11T05:53:30.815Z,12448
2017-06-11T05:54:30.811Z,12320
2017-06-11T05:55:24.949Z,12588
2017-06-11T05:56:18.978Z,12960
2017-06-11T05:57:08.026Z,13228
2017-06-11T05:58:13.995Z,13188
2017-06-11T05:59:02.100Z,13212
2017-06-11T05:59:57.099Z,13312
2017-06-11T06:00:58.392Z,13728
2017-06-11T06:01:52.429Z,14388
2017-06-11T06:02:40.366Z,15216
2017-06-11T06:03:29.271Z,16320
2017-06-11T06:04:24.365Z,17280
2017-06-11T06:05:13.304Z,17888
2017-06-11T06:06:07.503Z,18016
2017-06-11T06:07:02.188Z,17568
2017-06-11T06:08:02.530Z,16256
2017-06-11T06:08:51.675Z,15092
2017-06-11T06:09:39.731Z,13716
2017-06-11T06:10:33.521Z,12604
2017-06-11T06:11:21.779Z,12236
2017-06-11T06:12:27.818Z,12592
2017-06-11T06:13:22.757Z,13460
2017-06-11T06:14:17.926Z,14604
2017-06-11T06:15:17.925Z,15892
2017-06-11T06:16:12.980Z,17248
2017-06-11T06:17:08.129Z,18080
2017-06-11T06:18:08.343Z,18720
2017-06-11T06:19:08.206Z,19136
2017-06-11T06:20:02.223Z,19040
2017-06-11T06:21:02.775Z,18432
2017-06-11T06:22:03.274Z,18048
2017-06-11T06:22:58.252Z,18144
2017-06-11T06:23:46.312Z,18752
2017-06-11T06:24:40.476Z,19776
2017-06-11T06:25:35.527Z,20640
2017-06-11T06:26:24.325Z,20960
2017-06-11T06:27:18.630Z,20992
2017-06-11T06:28:12.504Z,21056
2017-06-11T06:29:12.319Z,20800
2017-06-11T06:30:06.389Z,20384
2017-06-11T06:31:00.785Z,20000
2017-06-11T06:31:54.791Z,19840
2017-06-11T06:32:42.748Z,20000
2017-06-11T06:33:36.976Z,20576
2017-06-11T06:34:26.053Z,21440
2017-06-11T06:35:14.073Z,22176
2017-06-11T06:36:08.950Z,23488
2017-06-11T06:37:03.113Z,24736
2017-06-11T06:37:52.242Z,25664
2017-06-11T06:38:52.286Z,26208
2017-06-11T06:39:46.281Z,26112
2017-06-11T06:40:35.358Z,26112
2017-06-11T06:41:30.391Z,26368
2017-06-11T06:42:30.456Z,26528
2017-06-11T06:43:18.526Z,26464
2017-06-11T06:44:12.471Z,26432
2017-06-11T06:45:00.651Z,26624
2017-06-11T06:45:55.677Z,27232
2017-06-11T06:46:44.798Z,28096
2017-06-11T06:47:39.724Z,28192
2017-06-11T06:48:28.771Z,29024
2017-06-11T06:49:22.885Z,30752
2017-06-11T06:50:22.930Z,30080
2017-06-11T06:51:22.875Z,29152
2017-06-11T06:52:11.902Z,28608
2017-06-11T06:53:12.922Z,26752
2017-06-11T06:54:14.064Z,25824
2017-06-11T06:55:14.173Z,25984
2017-06-11T06:56:14.255Z,27072
2017-06-11T06:57:02.785Z,26848
2017-06-11T06:57:57.302Z,26624
2017-06-11T06:58:57.292Z,26688
2017-06-11T06:59:52.056Z,26560
2017-06-11T07:00:46.308Z,27872
2017-06-11T07:01:47.700Z,29152
2017-06-11T07:02:48.495Z,31072
2017-06-11T07:03:42.630Z,34912
2017-06-11T07:04:36.739Z,34432
2017-06-11T07:05:30.585Z,37984
2017-06-11T07:06:24.377Z,38016
2017-06-11T07:07:24.973Z,39712
2017-06-11T07:08:13.879Z,40192
2017-06-11T07:09:01.943Z,67840
2017-06-11T07:10:02.044Z,79840
2017-06-11T07:10:56.041Z,78816
2017-06-11T07:11:45.223Z,74656
2017-06-11T07:12:39.234Z,78496
2017-06-11T07:13:27.368Z,65760
2017-06-11T07:14:21.431Z,55232
2017-06-11T07:15:10.477Z,63968
2017-06-11T07:16:04.591Z,49568
2017-06-11T07:16:53.672Z,50624
2017-06-11T07:17:48.763Z,47328
2017-06-11T07:18:42.854Z,40000
2017-06-11T07:19:36.928Z,44032
2017-06-11T07:20:30.941Z,46752
2017-06-11T07:21:24.993Z,51840
2017-06-11T07:22:20.188Z,62304
2017-06-11T07:23:20.187Z,51808
2017-06-11T07:24:20.232Z,36960
2017-06-11T07:25:14.317Z,36096
2017-06-11T07:26:08.427Z,34848
2017-06-11T07:26:57.476Z,33216
2017-06-11T07:27:52.536Z,32896
2017-06-11T07:28:46.664Z,37536
2017-06-11T07:29:41.674Z,34560
2017-06-11T07:30:35.777Z,48576
2017-06-11T07:31:24.847Z,77760
2017-06-11T07:32:19.932Z,50912
2017-06-11T07:33:09.015Z,41184
2017-06-11T07:34:04.071Z,41856
2017-06-11T07:34:53.179Z,41120
2017-06-11T07:35:42.235Z,43520
2017-06-11T07:36:31.306Z,48512
2017-06-11T07:37:26.362Z,62880
2017-06-11T07:38:21.444Z,58336
2017-06-11T07:39:21.681Z,54016
2017-06-11T07:40:09.764Z,58368
2017-06-11T07:41:04.748Z,55872
2017-06-11T07:42:05.760Z,62464
2017-06-11T07:42:59.822Z,56896
2017-06-11T07:43:59.967Z,69760
2017-06-11T07:44:49.050Z,72416
2017-06-11T07:45:37.109Z,66912
2017-06-11T07:46:31.219Z,76640
2017-06-11T07:47:25.279Z,79392
2017-06-11T07:48:14.327Z,77248
2017-06-11T07:49:09.445Z,79808
2017-06-11T07:49:58.527Z,75040
2017-06-11T07:50:53.566Z,76000
2017-06-11T07:51:53.651Z,50784
2017-06-11T07:52:41.770Z,57088
2017-06-11T07:53:30.792Z,55296
2017-06-11T07:54:18.855Z,58912
2017-06-11T07:55:13.042Z,35040
2017-06-11T07:56:07.042Z,34624
2017-06-11T07:57:02.152Z,39040
2017-06-11T07:57:50.207Z,44928
2017-06-11T07:58:39.217Z,48256
2017-06-11T07:59:34.370Z,55744
2017-06-11T08:00:28.460Z,51008
2017-06-11T08:01:23.503Z,64736
2017-06-11T08:02:24.556Z,62368
2017-06-11T08:03:19.672Z,65312
2017-06-11T08:04:13.840Z,69312
2017-06-11T08:05:08.923Z,64192
2017-06-11T08:06:03.969Z,60320
2017-06-11T08:06:58.042Z,55584
2017-06-11T08:07:53.192Z,59840
2017-06-11T08:08:42.193Z,66624
2017-06-11T08:09:37.302Z,53696
2017-06-11T08:10:31.395Z,61120
2017-06-11T08:11:31.575Z,65632
2017-06-11T08:12:25.575Z,97152
2017-06-11T08:13:19.621Z,72192
2017-06-11T08:14:13.702Z,85952
2017-06-11T08:15:07.813Z,89536
2017-06-11T08:16:07.846Z,62176
2017-06-11T08:17:01.980Z,83008
2017-06-11T08:17:55.980Z,81760
2017-06-11T08:18:45.102Z,81888
2017-06-11T08:19:39.176Z,79040
2017-06-11T08:20:33.272Z,65920
2017-06-11T08:21:28.387Z,54560
2017-06-11T08:22:23.416Z,58144
2017-06-11T08:23:17.516Z,58080
2017-06-11T08:24:12.594Z,56928
2017-06-11T08:25:12.683Z,72512
2017-06-11T08:26:00.750Z,72032
2017-06-11T08:26:55.792Z,74432
2017-06-11T08:27:44.005Z,75552
2017-06-11T08:28:37.995Z,74912
2017-06-11T08:29:33.136Z,72576
2017-06-11T08:30:27.246Z,75968
2017-06-11T08:31:15.325Z,80064
2017-06-11T08:32:15.347Z,71904
2017-06-11T08:33:03.434Z,78752
2017-06-11T08:33:57.543Z,62624
2017-06-11T08:34:51.692Z,52352
2017-06-11T08:35:46.772Z,70144
2017-06-11T08:36:40.809Z,69120
2017-06-11T08:37:40.853Z,66080
2017-06-11T08:38:46.980Z,68480
2017-06-11T08:39:41.068Z,66272
2017-06-11T08:40:35.146Z,59456
2017-06-11T08:41:30.233Z,77824
2017-06-11T08:42:24.346Z,74176
2017-06-11T08:43:19.422Z,76192
2017-06-11T08:44:08.547Z,86464
2017-06-11T08:45:02.553Z,86464
2017-06-11T08:45:57.634Z,80096
2017-06-11T08:46:57.744Z,78368
2017-06-11T08:47:52.864Z,71104
2017-06-11T08:48:47.948Z,73632
2017-06-11T08:49:41.980Z,78368
2017-06-11T08:50:36.094Z,83968
2017-06-11T08:51:25.169Z,77088
2017-06-11T08:52:20.274Z,73760
2017-06-11T08:53:15.330Z,76832
2017-06-11T08:54:09.417Z,79136
2017-06-11T08:55:04.490Z,79168
2017-06-11T08:56:04.572Z,85408
2017-06-11T08:57:04.611Z,88896
2017-06-11T08:57:58.786Z,83968
2017-06-11T08:58:52.893Z,86112
2017-06-11T08:59:46.976Z,87392
2017-06-11T09:00:47.112Z,91872
2017-06-11T09:01:36.151Z,92608
2017-06-11T09:02:24.183Z,91872
2017-06-11T09:03:18.264Z,81472
2017-06-11T09:04:12.372Z,97056
2017-06-11T09:05:07.472Z,98880
2017-06-11T09:06:01.546Z,85760
2017-06-11T09:06:55.637Z,69888
2017-06-11T09:07:43.716Z,60960
2017-06-11T09:08:37.795Z,70688
2017-06-11T09:09:37.826Z,75808
2017-06-11T09:10:37.903Z,55936
2017-06-11T09:11:38.033Z,58624
2017-06-11T09:12:33.146Z,55584
2017-06-11T09:13:27.255Z,48032
2017-06-11T09:14:27.289Z,65472
2017-06-11T09:15:16.370Z,55520
2017-06-11T09:16:05.471Z,52640
2017-06-11T09:17:00.614Z,51360
2017-06-11T09:17:49.670Z,48928
2017-06-11T09:18:38.772Z,48704
2017-06-11T09:19:33.800Z,50400
2017-06-11T09:20:33.899Z,56576
2017-06-11T09:21:33.979Z,38528
2017-06-11T09:22:23.009Z,58016
2017-06-11T09:23:17.136Z,56992
2017-06-11T09:24:06.244Z,54496
2017-06-11T09:25:01.292Z,58688
2017-06-11T09:25:55.412Z,61888
2017-06-11T09:26:44.497Z,67680
2017-06-11T09:27:32.533Z,56384
2017-06-11T09:28:26.667Z,62912
2017-06-11T09:29:14.729Z,57440
2017-06-11T09:30:08.816Z,84032
2017-06-11T09:30:57.940Z,72704
2017-06-11T09:31:52.973Z,68640
2017-06-11T09:32:47.124Z,60736
2017-06-11T09:33:41.112Z,101632
2017-06-11T09:34:30.221Z,60480
2017-06-11T09:35:19.303Z,74496
2017-06-11T09:36:19.392Z,66144
2017-06-11T09:37:13.460Z,68608
2017-06-11T09:38:08.593Z,74144
2017-06-11T09:39:03.674Z,59328
2017-06-11T09:39:52.722Z,63680
2017-06-11T09:40:41.829Z,72864
2017-06-11T09:41:42.937Z,62080
2017-06-11T09:42:32.028Z,59968
2017-06-11T09:43:26.052Z,68960
2017-06-11T09:44:21.140Z,61344
2017-06-11T09:45:21.262Z,61472
2017-06-11T09:46:16.321Z,61184
2017-06-11T09:47:10.439Z,63360
2017-06-11T09:47:59.505Z,63584
2017-06-11T09:48:53.691Z,65952
2017-06-11T09:49:41.703Z,67520
2017-06-11T09:50:35.715Z,75136
2017-06-11T09:51:35.855Z,66944
2017-06-11T09:52:24.904Z,59520
2017-06-11T09:53:13.003Z,58208
2017-06-11T09:54:07.105Z,72544
2017-06-11T09:54:56.148Z,61632
2017-06-11T09:55:45.302Z,69856
2017-06-11T09:56:39.347Z,78336
2017-06-11T09:57:28.431Z,97696
2017-06-11T09:58:22.489Z,74048
2017-06-11T09:59:22.627Z,74752
2017-06-11T10:00:16.706Z,73376
2017-06-11T10:01:05.744Z,84320
2017-06-11T10:01:54.870Z,102432
2017-06-11T10:02:48.920Z,72448
2017-06-11T10:03:43.036Z,73728
2017-06-11T10:04:43.295Z,67008
2017-06-11T10:05:38.267Z,79328
2017-06-11T10:06:32.274Z,60000
2017-06-11T10:07:26.376Z,63488
2017-06-11T10:08:27.450Z,63520
2017-06-11T10:09:16.591Z,56576
2017-06-11T10:10:10.990Z,59552
2017-06-11T10:11:04.740Z,71872
2017-06-11T10:11:53.891Z,64736
2017-06-11T10:12:42.906Z,63200
2017-06-11T10:13:32.014Z,69376
2017-06-11T10:14:26.083Z,55584
2017-06-11T10:15:21.173Z,56352
2017-06-11T10:16:21.221Z,56448
2017-06-11T10:17:10.352Z,56864
2017-06-11T10:18:04.469Z,61952
2017-06-11T10:18:52.497Z,70176
2017-06-11T10:19:52.636Z,62368
2017-06-11T10:20:47.708Z,58400
2017-06-11T10:21:36.732Z,62624
2017-06-11T10:22:30.765Z,49312
2017-06-11T10:23:24.920Z,60032
2017-06-11T10:24:18.972Z,45600
2017-06-11T10:25:08.089Z,57280
2017-06-11T10:26:02.217Z,96448
2017-06-11T10:26:51.303Z,60128
2017-06-11T10:27:45.376Z,54528
2017-06-11T10:28:33.436Z,75776
2017-06-11T10:29:27.496Z,60384
2017-06-11T10:30:16.670Z,60256
2017-06-11T10:31:05.728Z,62464
2017-06-11T10:31:59.799Z,67264
2017-06-11T10:32:53.905Z,74080
2017-06-11T10:33:47.982Z,76000
2017-06-11T10:34:37.056Z,77952
2017-06-11T10:35:37.155Z,70464
2017-06-11T10:36:26.340Z,72224
2017-06-11T10:37:20.261Z,50464
2017-06-11T10:38:20.423Z,77408
2017-06-11T10:39:09.542Z,70816
2017-06-11T10:40:04.579Z,74400
2017-06-11T10:41:04.692Z,75968
2017-06-11T10:41:53.813Z,76416
2017-06-11T10:42:41.827Z,75424
2017-06-11T10:43:30.895Z,72000
2017-06-11T10:44:25.020Z,80160
2017-06-11T10:45:19.113Z,85696
2017-06-11T10:46:08.198Z,84608
2017-06-11T10:46:56.307Z,68576
2017-06-11T10:47:45.387Z,71168
2017-06-11T10:48:34.407Z,83136
2017-06-11T10:49:28.520Z,68896
2017-06-11T10:50:28.629Z,95264
2017-06-11T10:51:23.589Z,79872
2017-06-11T10:52:17.909Z,80640
2017-06-11T10:53:05.768Z,67424
2017-06-11T10:54:05.923Z,58304
2017-06-11T10:54:59.995Z,51296
2017-06-11T10:56:00.086Z,49440
2017-06-11T10:56:54.183Z,49152
2017-06-11T10:57:48.293Z,51680
2017-06-11T10:58:42.358Z,60608
2017-06-11T10:59:36.398Z,59168
2017-06-11T11:00:30.520Z,55712
2017-06-11T11:01:31.589Z,60672
2017-06-11T11:02:25.675Z,72064
2017-06-11T11:03:25.747Z,65952
2017-06-11T11:04:20.829Z,68672
2017-06-11T11:05:14.925Z,25888
2017-06-11T11:06:09.029Z,78432
2017-06-11T11:07:04.169Z,66912
2017-06-11T11:07:58.202Z,70400
2017-06-11T11:08:59.150Z,74976
2017-06-11T11:09:58.361Z,75520
2017-06-11T11:10:52.474Z,68672
2017-06-11T11:11:52.634Z,97248
2017-06-11T11:12:47.633Z,92000
2017-06-11T11:13:36.780Z,74784
2017-06-11T11:14:25.958Z,89792
2017-06-11T11:15:25.922Z,109696
2017-06-11T11:16:20.937Z,111328
2017-06-11T11:17:15.055Z,101792
2017-06-11T11:18:10.153Z,97920
2017-06-11T11:19:04.272Z,77376
2017-06-11T11:19:59.343Z,78432
2017-06-11T11:20:48.391Z,76480
2017-06-11T11:21:42.469Z,80608
2017-06-11T11:22:30.528Z,76608
2017-06-11T11:23:30.603Z,83808
2017-06-11T11:24:25.774Z,101216
2017-06-11T11:25:19.877Z,56352
2017-06-11T11:26:07.927Z,54400
2017-06-11T11:27:01.981Z,51680
2017-06-11T11:28:02.095Z,51488
2017-06-11T11:28:56.171Z,51232
2017-06-11T11:29:50.222Z,54304
2017-06-11T11:30:39.374Z,65280
2017-06-11T11:31:28.415Z,60736
2017-06-11T11:32:17.481Z,62400
2017-06-11T11:33:11.605Z,61504
2017-06-11T11:34:11.712Z,57984
2017-06-11T11:35:06.739Z,70752
2017-06-11T11:35:54.914Z,66144
2017-06-11T11:36:54.949Z,66976
2017-06-11T11:37:55.041Z,58432
2017-06-11T11:38:50.094Z,61856
2017-06-11T11:39:44.203Z,59168
2017-06-11T11:40:39.302Z,61376
2017-06-11T11:41:39.396Z,57632
2017-06-11T11:42:27.398Z,55744
2017-06-11T11:43:21.564Z,54752
2017-06-11T11:44:21.631Z,53728
2017-06-11T11:45:10.740Z,54656
2017-06-11T11:46:05.812Z,60256
2017-06-11T11:46:59.947Z,65728
2017-06-11T11:47:54.966Z,76992
2017-06-11T11:48:44.052Z,85504
2017-06-11T11:49:33.160Z,64064
2017-06-11T11:50:22.252Z,69056
2017-06-11T11:51:16.304Z,73824